createdAt,value
2018-09-06T00:01:50.944Z,21.40
2018-09-06T00:04:20.050Z,21.30
2018-09-06T00:06:48.191Z,21.20
2018-09-06T00:09:16.057Z,21.30
2018-09-06T00:11:43.933Z,21.20
2018-09-06T00:14:11.740Z,21.20
2018-09-06T00:16:40.249Z,21.20
2018-09-06T00:19:09.296Z,21.20
2018-09-06T00:21:37.158Z,21.20
2018-09-06T00:24:04.971Z,21.20
2018-09-06T00:26:32.969Z,21.20
2018-09-06T00:29:00.808Z,21.20
2018-09-06T00:31:28.508Z,21.10
2018-09-06T00:33:56.253Z,21.10
2018-09-06T00:36:24.172Z,21.10
2018-09-06T00:38:51.863Z,21.10
2018-09-06T00:41:20.066Z,21.10
2018-09-06T00:43:59.779Z,21.10
2018-09-06T00:46:27.935Z,21.10
2018-09-06T00:49:12.212Z,21.10
2018-09-06T00:51:41.653Z,21.10
2018-09-06T00:54:09.404Z,21.10
2018-09-06T00:56:38.035Z,21.00
2018-09-06T00:59:06.417Z,21.00
2018-09-06T01:01:34.242Z,21.00
2018-09-06T01:04:04.893Z,20.90
2018-09-06T01:06:32.988Z,20.90
2018-09-06T01:09:01.902Z,20.90
2018-09-06T01:11:29.721Z,20.90
2018-09-06T01:13:57.492Z,20.90
2018-09-06T01:16:25.168Z,20.80
2018-09-06T01:18:58.396Z,20.80
2018-09-06T01:21:26.171Z,20.80
2018-09-06T01:23:53.994Z,20.70
2018-09-06T01:26:22.775Z,20.70
2018-09-06T01:28:50.681Z,20.70
2018-09-06T01:31:22.123Z,20.70
2018-09-06T01:33:49.950Z,20.70
2018-09-06T01:36:23.318Z,20.70
2018-09-06T01:38:51.287Z,20.70
2018-09-06T01:41:19.061Z,20.70
2018-09-06T01:43:46.714Z,20.70
2018-09-06T01:46:14.586Z,20.60
2018-09-06T01:48:42.594Z,20.60
2018-09-06T01:51:12.167Z,20.60
2018-09-06T01:53:39.811Z,20.50
2018-09-06T01:56:07.600Z,20.50
2018-09-06T01:58:35.185Z,20.50
2018-09-06T02:01:03.333Z,20.50
2018-09-06T02:03:31.361Z,20.50
2018-09-06T02:05:59.401Z,20.50
2018-09-06T02:08:27.342Z,20.50
2018-09-06T02:10:55.133Z,20.40
2018-09-06T02:13:22.854Z,20.40
2018-09-06T02:15:50.588Z,20.40
2018-09-06T02:18:18.463Z,20.40
2018-09-06T02:20:46.378Z,20.40
2018-09-06T02:23:14.221Z,20.30
2018-09-06T02:25:42.150Z,20.30
2018-09-06T02:28:10.233Z,20.30
2018-09-06T02:30:38.263Z,20.30
2018-09-06T02:33:05.980Z,20.30
2018-09-06T02:35:33.845Z,20.30
2018-09-06T02:38:01.480Z,20.30
2018-09-06T02:40:34.916Z,20.20
2018-09-06T02:45:47.332Z,20.20
2018-09-06T02:48:15.750Z,20.20
2018-09-06T02:50:49.140Z,20.20
2018-09-06T02:53:16.944Z,20.10
2018-09-06T02:55:45.671Z,20.00
2018-09-06T02:58:13.520Z,20.10
2018-09-06T03:00:41.471Z,20.00
2018-09-06T03:03:09.127Z,20.00
2018-09-06T03:05:36.849Z,20.00
2018-09-06T03:08:04.662Z,20.00
2018-09-06T03:10:38.780Z,20.00
2018-09-06T03:13:06.943Z,20.00
2018-09-06T03:15:34.631Z,20.00
2018-09-06T03:18:02.858Z,20.00
2018-09-06T03:20:30.599Z,19.90
2018-09-06T03:22:58.350Z,19.90
2018-09-06T03:25:26.210Z,19.90
2018-09-06T03:27:53.868Z,19.90
2018-09-06T03:30:21.715Z,19.90
2018-09-06T03:32:49.507Z,19.90
2018-09-06T03:35:17.733Z,19.90
2018-09-06T03:37:45.570Z,19.90
2018-09-06T03:40:13.315Z,19.90
2018-09-06T03:42:41.238Z,19.90
2018-09-06T03:45:09.952Z,19.90
2018-09-06T03:47:37.635Z,19.90
2018-09-06T03:50:05.313Z,19.90
2018-09-06T03:52:33.078Z,19.90
2018-09-06T03:55:00.938Z,19.90
2018-09-06T03:57:28.713Z,19.90
2018-09-06T03:59:56.719Z,19.90
2018-09-06T04:02:24.339Z,19.80
2018-09-06T04:04:52.105Z,19.90
2018-09-06T04:07:19.783Z,19.90
2018-09-06T04:09:48.390Z,19.80
2018-09-06T04:12:16.935Z,19.80
2018-09-06T04:14:45.195Z,19.80
2018-09-06T04:17:13.415Z,19.80
2018-09-06T04:19:41.214Z,19.80
2018-09-06T04:22:08.898Z,19.80
2018-09-06T04:24:36.706Z,19.80
2018-09-06T04:27:04.434Z,19.80
2018-09-06T04:29:32.295Z,19.70
2018-09-06T04:32:00.139Z,19.70
2018-09-06T04:34:27.851Z,19.70
2018-09-06T04:36:55.542Z,19.70
2018-09-06T04:39:23.310Z,19.70
2018-09-06T04:41:51.027Z,19.70
2018-09-06T04:44:18.799Z,19.60
2018-09-06T04:46:49.800Z,19.70
2018-09-06T04:49:17.784Z,19.70
2018-09-06T04:51:53.052Z,19.70
2018-09-06T04:54:22.098Z,19.70
2018-09-06T04:56:51.497Z,19.70
2018-09-06T04:59:19.658Z,19.70
2018-09-06T05:01:48.872Z,19.60
2018-09-06T05:04:16.862Z,19.60
2018-09-06T05:06:44.704Z,19.70
2018-09-06T05:09:12.907Z,19.60
2018-09-06T05:11:43.403Z,19.60
2018-09-06T05:14:11.418Z,19.60
2018-09-06T05:16:40.151Z,19.60
2018-09-06T05:19:10.095Z,19.60
2018-09-06T05:21:55.255Z,19.60
2018-09-06T05:30:29.664Z,19.60
2018-09-06T05:32:58.531Z,19.60
2018-09-06T05:35:27.342Z,19.60
2018-09-06T05:37:56.401Z,19.70
2018-09-06T05:40:27.890Z,19.70
2018-09-06T05:43:00.395Z,19.70
2018-09-06T05:48:23.088Z,19.70
2018-09-06T05:50:51.904Z,19.70
2018-09-06T05:53:24.467Z,19.70
2018-09-06T05:55:53.297Z,19.70
2018-09-06T05:58:21.122Z,19.70
2018-09-06T06:00:49.519Z,19.70
2018-09-06T06:03:17.596Z,19.80
2018-09-06T06:05:46.177Z,19.80
2018-09-06T06:08:25.515Z,19.80
2018-09-06T06:10:53.291Z,19.70
2018-09-06T06:13:21.166Z,19.80
2018-09-06T06:15:49.406Z,19.80
2018-09-06T06:18:17.328Z,19.80
2018-09-06T06:20:46.039Z,19.80
2018-09-06T06:23:23.928Z,19.80
2018-09-06T06:25:52.079Z,19.90
2018-09-06T06:28:21.060Z,19.90
2018-09-06T06:30:51.714Z,19.90
2018-09-06T06:33:20.596Z,19.90
2018-09-06T06:35:49.429Z,19.90
2018-09-06T06:38:20.842Z,19.90
2018-09-06T06:40:48.824Z,20.00
2018-09-06T06:43:16.922Z,20.00
2018-09-06T06:45:44.797Z,20.00
2018-09-06T06:48:12.606Z,20.00
2018-09-06T06:50:41.718Z,20.10
2018-09-06T06:53:10.380Z,20.10
2018-09-06T06:55:38.159Z,20.20
2018-09-06T06:58:06.018Z,20.10
2018-09-06T07:00:40.220Z,20.20
2018-09-06T07:03:08.873Z,20.20
2018-09-06T07:05:36.687Z,20.30
2018-09-06T07:08:04.815Z,20.30
2018-09-06T07:10:32.644Z,20.30
2018-09-06T07:13:00.361Z,20.30
2018-09-06T07:15:29.642Z,20.40
2018-09-06T07:17:57.348Z,20.40
2018-09-06T07:20:25.251Z,20.40
2018-09-06T07:22:53.031Z,20.40
2018-09-06T07:25:20.767Z,20.50
2018-09-06T07:27:48.424Z,20.50
2018-09-06T07:30:17.081Z,20.60
2018-09-06T07:32:44.848Z,20.60
2018-09-06T07:35:23.785Z,20.60
2018-09-06T07:43:48.090Z,20.70
2018-09-06T07:46:17.522Z,20.80
2018-09-06T07:48:47.332Z,20.80
2018-09-06T07:51:15.083Z,20.90
2018-09-06T08:02:39.890Z,21.10
2018-09-06T08:05:08.003Z,21.10
2018-09-06T08:07:35.765Z,21.20
2018-09-06T08:10:03.730Z,21.20
2018-09-06T08:12:31.515Z,21.30
2018-09-06T08:14:59.136Z,21.30
2018-09-06T08:17:41.383Z,21.40
2018-09-06T08:20:09.224Z,21.40
2018-09-06T08:22:37.829Z,21.50
2018-09-06T08:25:06.419Z,21.50
2018-09-06T08:27:34.315Z,21.60
2018-09-06T08:30:02.031Z,21.60
2018-09-06T08:32:30.335Z,21.60
2018-09-06T08:34:58.453Z,21.70
2018-09-06T08:37:26.153Z,21.70
2018-09-06T08:39:59.436Z,21.80
2018-09-06T08:42:27.033Z,21.90
2018-09-06T08:44:54.734Z,21.90
2018-09-06T08:47:22.379Z,22.00
2018-09-06T08:49:50.903Z,22.00
2018-09-06T08:52:18.810Z,22.10
2018-09-06T08:54:46.540Z,22.10
2018-09-06T08:57:14.703Z,22.10
2018-09-06T08:59:42.480Z,22.20
2018-09-06T09:02:13.233Z,22.20
2018-09-06T09:04:41.106Z,22.30
2018-09-06T09:07:11.047Z,22.30
2018-09-06T09:09:38.879Z,22.30
2018-09-06T09:12:07.362Z,22.30
2018-09-06T09:14:36.244Z,22.40
2018-09-06T09:19:58.338Z,22.50
2018-09-06T09:22:26.180Z,22.60
2018-09-06T09:24:54.623Z,22.60
2018-09-06T09:27:22.354Z,22.60
2018-09-06T09:29:50.536Z,22.70
2018-09-06T09:32:19.451Z,22.70
2018-09-06T09:34:51.253Z,22.80
2018-09-06T09:37:20.519Z,22.80
2018-09-06T09:39:48.291Z,22.80
2018-09-06T09:42:16.761Z,22.90
2018-09-06T09:44:45.082Z,22.90
2018-09-06T09:49:40.432Z,22.90
2018-09-06T09:52:12.095Z,23.00
2018-09-06T09:54:40.330Z,23.00
2018-09-06T09:57:08.177Z,23.00
2018-09-06T09:59:35.869Z,23.00
2018-09-06T10:02:09.219Z,23.00
2018-09-06T10:04:42.718Z,23.10
2018-09-06T10:07:17.040Z,23.00
2018-09-06T10:09:44.910Z,23.10
2018-09-06T10:12:12.588Z,23.10
2018-09-06T10:14:42.513Z,23.00
2018-09-06T10:17:10.473Z,23.00
2018-09-06T10:19:38.112Z,23.00
2018-09-06T10:22:05.901Z,23.00
2018-09-06T10:24:36.664Z,23.00
2018-09-06T10:27:04.607Z,23.00
2018-09-06T10:29:32.438Z,22.90
2018-09-06T10:32:00.873Z,22.80
2018-09-06T10:34:32.853Z,22.90
2018-09-06T10:37:00.524Z,22.90
2018-09-06T10:39:28.349Z,22.70
2018-09-06T10:41:57.179Z,22.60
2018-09-06T10:44:28.234Z,22.30
2018-09-06T10:46:55.953Z,22.30
2018-09-06T10:49:23.966Z,22.20
2018-09-06T10:51:52.904Z,22.10
2018-09-06T10:54:20.974Z,22.00
2018-09-06T10:59:48.822Z,21.80
2018-09-06T11:02:17.795Z,21.70
2018-09-06T11:04:45.566Z,21.70
2018-09-06T11:07:13.403Z,21.70
2018-09-06T11:09:41.254Z,21.70
2018-09-06T11:12:08.931Z,21.80
2018-09-06T11:14:36.972Z,21.90
2018-09-06T11:17:11.309Z,21.90
2018-09-06T11:19:39.064Z,21.90
2018-09-06T11:22:09.716Z,21.90
2018-09-06T11:24:38.219Z,22.00
2018-09-06T11:27:07.783Z,22.00
2018-09-06T11:29:35.533Z,22.00
2018-09-06T11:32:08.869Z,22.10
2018-09-06T11:34:37.708Z,22.10
2018-09-06T11:37:05.830Z,22.10
2018-09-06T11:39:33.656Z,22.10
2018-09-06T11:42:01.321Z,22.10
2018-09-06T11:44:30.060Z,22.10
2018-09-06T11:46:57.701Z,22.10
2018-09-06T11:49:26.119Z,22.10
2018-09-06T11:51:54.963Z,22.00
2018-09-06T11:54:23.195Z,22.00
2018-09-06T11:56:50.916Z,22.00
2018-09-06T11:59:18.658Z,22.00
2018-09-06T12:01:47.163Z,22.00
2018-09-06T12:04:16.041Z,22.00
2018-09-06T12:06:47.338Z,22.10
2018-09-06T12:09:15.364Z,22.10
2018-09-06T12:11:44.074Z,22.10
2018-09-06T12:14:12.467Z,22.20
2018-09-06T12:16:40.501Z,22.10
2018-09-06T12:19:12.035Z,22.20
2018-09-06T12:21:40.548Z,22.30
2018-09-06T12:24:11.456Z,22.30
2018-09-06T12:26:40.827Z,22.40
2018-09-06T12:29:09.075Z,22.40
2018-09-06T12:31:37.984Z,22.50
2018-09-06T12:34:06.228Z,22.60
2018-09-06T12:36:35.274Z,22.80
2018-09-06T12:39:04.507Z,22.90
2018-09-06T12:41:32.294Z,23.00
2018-09-06T12:44:03.426Z,23.10
2018-09-06T12:46:32.650Z,23.10
2018-09-06T12:49:08.655Z,23.20
2018-09-06T12:51:37.342Z,23.20
2018-09-06T12:54:09.804Z,23.40
2018-09-06T12:56:44.378Z,23.50
2018-09-06T12:59:12.517Z,23.50
2018-09-06T13:01:47.081Z,23.60
2018-09-06T13:04:22.589Z,23.70
2018-09-06T13:06:52.398Z,23.70
2018-09-06T13:09:21.653Z,23.70
2018-09-06T13:11:51.205Z,23.80
2018-09-06T13:14:19.269Z,23.90
2018-09-06T13:16:54.443Z,24.10
2018-09-06T13:19:23.642Z,24.20
2018-09-06T13:21:51.477Z,24.20
2018-09-06T13:24:20.861Z,24.30
2018-09-06T13:26:48.663Z,24.30
2018-09-06T13:29:19.563Z,24.30
2018-09-06T13:31:47.777Z,24.30
2018-09-06T13:40:18.251Z,24.30
2018-09-06T13:42:47.308Z,24.10
2018-09-06T13:45:16.174Z,24.20
2018-09-06T13:47:47.334Z,24.10
2018-09-06T13:50:15.187Z,24.20
2018-09-06T13:52:42.831Z,24.10
2018-09-06T13:55:10.903Z,24.20
2018-09-06T13:57:39.697Z,24.10
2018-09-06T14:00:07.637Z,24.10
2018-09-06T14:02:35.301Z,24.00
2018-09-06T14:05:03.141Z,23.90
2018-09-06T14:07:32.585Z,23.80
2018-09-06T14:10:00.485Z,23.70
2018-09-06T14:15:19.663Z,23.70
2018-09-06T14:17:49.028Z,23.80
2018-09-06T14:20:16.926Z,23.80
2018-09-06T14:22:53.921Z,23.80
2018-09-06T14:25:21.987Z,23.80
2018-09-06T14:27:51.776Z,23.80
2018-09-06T14:30:19.550Z,23.80
2018-09-06T14:32:47.207Z,23.80
2018-09-06T14:35:16.045Z,23.80
2018-09-06T14:37:44.277Z,23.80
2018-09-06T14:40:12.165Z,23.80
2018-09-06T14:42:39.935Z,23.80
2018-09-06T14:45:07.940Z,23.80
2018-09-06T14:47:39.487Z,23.70
2018-09-06T14:50:09.229Z,23.70
2018-09-06T14:55:39.994Z,23.70
2018-09-06T14:58:08.780Z,23.70
2018-09-06T15:00:37.646Z,23.70
2018-09-06T15:03:07.839Z,23.60
2018-09-06T15:05:36.718Z,23.60
2018-09-06T15:08:05.124Z,23.60
2018-09-06T15:10:34.279Z,23.70
2018-09-06T15:13:06.914Z,23.50
2018-09-06T15:15:50.149Z,23.40
2018-09-06T15:18:18.454Z,23.50
2018-09-06T15:20:51.726Z,23.50
2018-09-06T15:23:19.456Z,23.60
2018-09-06T15:25:47.148Z,23.60
2018-09-06T15:28:15.671Z,23.70
2018-09-06T15:30:43.511Z,23.70
2018-09-06T15:35:47.635Z,23.70
2018-09-06T15:38:15.619Z,23.70
2018-09-06T15:40:43.725Z,23.70
2018-09-06T15:43:19.847Z,23.70
2018-09-06T15:45:55.722Z,23.70
2018-09-06T15:48:24.608Z,23.60
2018-09-06T15:50:52.994Z,23.60
2018-09-06T15:53:22.612Z,23.70
2018-09-06T15:55:51.418Z,23.70
2018-09-06T15:58:20.935Z,23.70
2018-09-06T16:00:48.525Z,23.70
2018-09-06T16:03:17.008Z,23.70
2018-09-06T16:05:44.793Z,23.80
2018-09-06T16:08:12.564Z,23.80
2018-09-06T16:10:40.236Z,23.80
2018-09-06T16:13:09.241Z,23.80
2018-09-06T16:15:37.984Z,23.80
2018-09-06T16:18:05.898Z,23.70
2018-09-06T16:20:33.661Z,23.70
2018-09-06T16:23:01.508Z,23.70
2018-09-06T16:25:31.798Z,23.70
2018-09-06T16:28:00.491Z,23.70
2018-09-06T16:30:28.325Z,23.80
2018-09-06T16:32:56.190Z,23.70
2018-09-06T16:35:30.239Z,23.80
2018-09-06T16:37:58.132Z,23.80
2018-09-06T16:40:25.899Z,23.80
2018-09-06T16:42:53.962Z,23.80
2018-09-06T16:45:21.676Z,23.70
2018-09-06T16:47:49.785Z,23.70
2018-09-06T16:50:17.571Z,23.70
2018-09-06T16:52:45.385Z,23.70
2018-09-06T16:55:21.229Z,23.70
2018-09-06T16:57:49.770Z,23.70
2018-09-06T17:00:24.029Z,23.70
2018-09-06T17:02:51.974Z,23.60
2018-09-06T17:05:23.707Z,23.60
2018-09-06T17:07:51.695Z,23.60
2018-09-06T17:10:20.551Z,23.60
2018-09-06T17:12:48.320Z,23.60
2018-09-06T17:15:16.058Z,23.60
2018-09-06T17:17:43.878Z,23.60
2018-09-06T17:20:11.585Z,23.60
2018-09-06T17:22:39.293Z,23.60
2018-09-06T17:25:07.063Z,23.50
2018-09-06T17:27:34.924Z,23.50
2018-09-06T17:30:02.631Z,23.50
2018-09-06T17:32:31.252Z,23.50
2018-09-06T17:34:58.879Z,23.50
2018-09-06T17:37:26.598Z,23.40
2018-09-06T17:39:54.234Z,23.30
2018-09-06T17:42:24.484Z,23.30
2018-09-06T17:44:53.308Z,23.20
2018-09-06T17:47:21.195Z,23.10
2018-09-06T17:49:49.790Z,23.10
2018-09-06T17:52:17.490Z,23.10
2018-09-06T17:54:45.975Z,23.20
2018-09-06T17:57:14.299Z,23.20
2018-09-06T17:59:42.010Z,23.10
2018-09-06T18:02:10.861Z,23.10
2018-09-06T18:04:39.193Z,23.10
2018-09-06T18:07:07.852Z,23.00
2018-09-06T18:09:36.600Z,22.90
2018-09-06T18:12:04.495Z,22.90
2018-09-06T18:14:32.253Z,22.80
2018-09-06T18:17:00.069Z,22.90
2018-09-06T18:19:27.862Z,22.80
2018-09-06T18:21:55.622Z,22.80
2018-09-06T18:24:23.310Z,22.80
2018-09-06T18:26:51.192Z,22.80
2018-09-06T18:29:18.907Z,22.80
2018-09-06T18:31:48.730Z,22.80
2018-09-06T18:34:16.584Z,22.80
2018-09-06T18:36:45.888Z,22.80
2018-09-06T18:39:13.590Z,22.80
2018-09-06T18:41:41.376Z,22.70
2018-09-06T18:44:09.096Z,22.60
2018-09-06T18:46:36.941Z,22.60
2018-09-06T18:49:06.534Z,22.60
2018-09-06T18:51:34.287Z,22.70
2018-09-06T18:54:02.588Z,22.70
2018-09-06T18:56:30.292Z,22.70
2018-09-06T18:58:58.836Z,22.70
2018-09-06T19:01:26.531Z,22.70
2018-09-06T19:03:55.440Z,22.70
2018-09-06T19:06:29.881Z,22.70
2018-09-06T19:08:57.673Z,22.60
2018-09-06T19:11:26.846Z,22.50
2018-09-06T19:16:31.825Z,22.60
2018-09-06T19:18:59.845Z,22.50
2018-09-06T19:21:28.303Z,22.50
2018-09-06T19:23:56.005Z,22.50
2018-09-06T19:26:23.700Z,22.50
2018-09-06T19:28:52.241Z,22.60
2018-09-06T19:31:20.200Z,22.60
2018-09-06T19:33:48.223Z,22.60
2018-09-06T19:36:16.788Z,22.50
2018-09-06T19:38:44.471Z,22.60
2018-09-06T19:41:12.102Z,22.60
2018-09-06T19:43:40.183Z,22.60
2018-09-06T19:46:07.907Z,22.60
2018-09-06T19:48:35.775Z,22.50
2018-09-06T19:51:03.659Z,22.50
2018-09-06T19:53:31.328Z,22.50
2018-09-06T19:55:59.331Z,22.50
2018-09-06T19:58:27.084Z,22.50
2018-09-06T20:00:55.074Z,22.50
2018-09-06T20:03:23.023Z,22.50
2018-09-06T20:05:50.807Z,22.50
2018-09-06T20:08:18.539Z,22.40
2018-09-06T20:10:46.185Z,22.40
2018-09-06T20:13:14.286Z,22.30
2018-09-06T20:15:45.397Z,22.30
2018-09-06T20:18:13.465Z,22.30
2018-09-06T20:20:41.627Z,22.20
2018-09-06T20:23:09.978Z,22.20
2018-09-06T20:25:38.171Z,22.10
2018-09-06T20:28:06.603Z,22.10
2018-09-06T20:30:34.958Z,22.00
2018-09-06T20:33:03.041Z,22.00
2018-09-06T20:35:31.385Z,21.90
2018-09-06T20:37:59.435Z,21.90
2018-09-06T20:40:36.118Z,21.90
2018-09-06T20:43:04.313Z,21.80
2018-09-06T20:45:32.371Z,21.80
2018-09-06T20:48:00.393Z,21.80
2018-09-06T20:50:28.697Z,21.80
2018-09-06T20:52:57.149Z,21.80
2018-09-06T20:55:26.307Z,21.80
2018-09-06T20:57:54.461Z,21.80
2018-09-06T21:00:22.692Z,21.90
2018-09-06T21:02:51.253Z,21.90
2018-09-06T21:05:21.636Z,21.90
2018-09-06T21:07:49.792Z,21.80
2018-09-06T21:10:18.178Z,21.90
2018-09-06T21:12:47.240Z,21.90
2018-09-06T21:15:15.291Z,21.90
2018-09-06T21:17:46.103Z,21.90
2018-09-06T21:20:14.609Z,21.90
2018-09-06T21:22:42.670Z,21.90
2018-09-06T21:25:10.871Z,21.90
2018-09-06T21:27:38.981Z,21.90
2018-09-06T21:30:07.377Z,21.90
2018-09-06T21:32:35.542Z,21.90
2018-09-06T21:35:04.152Z,21.90
2018-09-06T21:37:33.053Z,21.90
2018-09-06T21:40:03.729Z,21.80
2018-09-06T21:42:32.866Z,21.80
2018-09-06T21:45:04.311Z,21.80
2018-09-06T21:47:33.075Z,21.80
2018-09-06T21:50:01.150Z,21.70
2018-09-06T21:52:29.607Z,21.70
2018-09-06T21:54:58.060Z,21.70
2018-09-06T21:57:26.856Z,21.70
2018-09-06T21:59:58.589Z,21.70
2018-09-06T22:04:41.963Z,21.70
2018-09-06T22:07:10.136Z,21.70
2018-09-06T22:09:38.773Z,21.70
2018-09-06T22:12:26.865Z,21.80
2018-09-06T22:14:58.064Z,21.70
2018-09-06T22:17:31.977Z,21.80
2018-09-06T22:19:59.888Z,21.70
2018-09-06T22:22:27.629Z,21.80
2018-09-06T22:25:39.764Z,21.70
2018-09-06T22:28:07.810Z,21.70
2018-09-06T22:30:35.559Z,21.70
2018-09-06T22:33:03.377Z,21.70
2018-09-06T22:35:31.092Z,21.70
2018-09-06T22:38:02.353Z,21.70
2018-09-06T22:43:33.318Z,21.60
2018-09-06T22:46:01.645Z,21.60
2018-09-06T22:48:29.562Z,21.60
2018-09-06T22:50:57.529Z,21.60
2018-09-06T22:53:25.152Z,21.60
2018-09-06T22:56:00.992Z,21.50
2018-09-06T22:58:35.842Z,21.50
2018-09-06T23:01:07.219Z,21.40
2018-09-06T23:03:39.538Z,21.50
2018-09-06T23:06:16.958Z,21.50
2018-09-06T23:08:44.967Z,21.40
2018-09-06T23:11:12.857Z,21.40
2018-09-06T23:16:44.279Z,21.30
2018-09-06T23:19:11.959Z,21.30
2018-09-06T23:21:48.560Z,21.30
2018-09-06T23:24:16.319Z,21.30
2018-09-06T23:26:45.436Z,21.30
2018-09-06T23:29:33.249Z,21.30
2018-09-06T23:32:00.985Z,21.20
2018-09-06T23:37:34.860Z,21.20
2018-09-06T23:40:02.611Z,21.20
2018-09-06T23:42:30.411Z,21.20
2018-09-06T23:45:24.177Z,21.10
2018-09-06T23:47:52.076Z,21.10
2018-09-06T23:50:23.484Z,21.00
2018-09-06T23:52:51.476Z,21.00
2018-09-06T23:55:19.179Z,21.00
2018-09-06T23:57:46.848Z,21.00
